sensor_id;sensor_type;location;lat;lon;timestamp;P1;durP1;ratioP1;P2;durP2;ratioP2
67248;SDS011;63247;54.300;18.592;2023-01-10T00:00:50;44.78;;;15.23;;
67248;SDS011;63247;54.300;18.592;2023-01-10T00:03:16;45.22;;;15.02;;
67248;SDS011;63247;54.300;18.592;2023-01-10T00:05:42;42.50;;;14.50;;
67248;SDS011;63247;54.300;18.592;2023-01-10T00:08:09;47.00;;;14.40;;
67248;SDS011;63247;54.300;18.592;2023-01-10T00:10:38;43.70;;;14.77;;
67248;SDS011;63247;54.300;18.592;2023-01-10T00:13:04;40.27;;;14.53;;
67248;SDS011;63247;54.300;18.592;2023-01-10T00:15:47;39.53;;;13.70;;
67248;SDS011;63247;54.300;18.592;2023-01-10T00:18:14;40.23;;;14.10;;
67248;SDS011;63247;54.300;18.592;2023-01-10T00:20:39;37.53;;;13.85;;
67248;SDS011;63247;54.300;18.592;2023-01-10T00:23:05;38.08;;;13.23;;
67248;SDS011;63247;54.300;18.592;2023-01-10T00:25:31;37.33;;;13.30;;
67248;SDS011;63247;54.300;18.592;2023-01-10T00:28:00;39.53;;;13.00;;
67248;SDS011;63247;54.300;18.592;2023-01-10T00:30:38;38.93;;;12.47;;
67248;SDS011;63247;54.300;18.592;2023-01-10T00:33:04;37.63;;;13.02;;
67248;SDS011;63247;54.300;18.592;2023-01-10T00:35:33;34.53;;;12.18;;
67248;SDS011;63247;54.300;18.592;2023-01-10T00:37:59;33.33;;;12.75;;
67248;SDS011;63247;54.300;18.592;2023-01-10T00:40:32;33.53;;;12.77;;
67248;SDS011;63247;54.300;18.592;2023-01-10T00:42:58;34.27;;;12.20;;
67248;SDS011;63247;54.300;18.592;2023-01-10T00:45:46;29.88;;;11.57;;
67248;SDS011;63247;54.300;18.592;2023-01-10T00:48:12;33.63;;;12.23;;
67248;SDS011;63247;54.300;18.592;2023-01-10T00:50:39;32.28;;;11.77;;
67248;SDS011;63247;54.300;18.592;2023-01-10T00:53:04;29.00;;;11.68;;
67248;SDS011;63247;54.300;18.592;2023-01-10T00:55:30;30.80;;;11.50;;
67248;SDS011;63247;54.300;18.592;2023-01-10T00:58:00;32.60;;;11.18;;
67248;SDS011;63247;54.300;18.592;2023-01-10T01:00:26;27.03;;;10.50;;
67248;SDS011;63247;54.300;18.592;2023-01-10T01:02:52;30.27;;;10.90;;
67248;SDS011;63247;54.300;18.592;2023-01-10T01:05:18;31.02;;;11.60;;
67248;SDS011;63247;54.300;18.592;2023-01-10T01:07:46;28.53;;;10.90;;
67248;SDS011;63247;54.300;18.592;2023-01-10T01:10:13;29.13;;;11.00;;
67248;SDS011;63247;54.300;18.592;2023-01-10T01:13:04;27.80;;;10.30;;
67248;SDS011;63247;54.300;18.592;2023-01-10T01:15:35;31.85;;;11.07;;
67248;SDS011;63247;54.300;18.592;2023-01-10T01:18:00;32.43;;;11.60;;
67248;SDS011;63247;54.300;18.592;2023-01-10T01:20:27;30.17;;;11.30;;
67248;SDS011;63247;54.300;18.592;2023-01-10T01:22:52;28.73;;;10.25;;
67248;SDS011;63247;54.300;18.592;2023-01-10T01:25:18;29.75;;;11.27;;
67248;SDS011;63247;54.300;18.592;2023-01-10T01:27:43;32.27;;;10.80;;
67248;SDS011;63247;54.300;18.592;2023-01-10T01:30:09;34.58;;;11.95;;
67248;SDS011;63247;54.300;18.592;2023-01-10T01:32:35;30.30;;;11.32;;
67248;SDS011;63247;54.300;18.592;2023-01-10T01:35:01;33.20;;;11.70;;
67248;SDS011;63247;54.300;18.592;2023-01-10T01:37:27;30.67;;;10.93;;
67248;SDS011;63247;54.300;18.592;2023-01-10T01:39:53;34.55;;;11.50;;
67248;SDS011;63247;54.300;18.592;2023-01-10T01:47:47;38.40;;;13.43;;
67248;SDS011;63247;54.300;18.592;2023-01-10T01:50:21;34.10;;;12.65;;
67248;SDS011;63247;54.300;18.592;2023-01-10T01:52:52;36.22;;;13.98;;
67248;SDS011;63247;54.300;18.592;2023-01-10T01:55:20;38.95;;;13.07;;
67248;SDS011;63247;54.300;18.592;2023-01-10T01:57:48;34.08;;;13.00;;
67248;SDS011;63247;54.300;18.592;2023-01-10T02:00:15;33.83;;;11.80;;
67248;SDS011;63247;54.300;18.592;2023-01-10T02:02:43;38.00;;;13.15;;
67248;SDS011;63247;54.300;18.592;2023-01-10T02:05:14;34.50;;;12.18;;
67248;SDS011;63247;54.300;18.592;2023-01-10T02:07:42;33.28;;;12.18;;
67248;SDS011;63247;54.300;18.592;2023-01-10T02:13:07;32.53;;;11.47;;
67248;SDS011;63247;54.300;18.592;2023-01-10T02:15:35;30.95;;;10.45;;
67248;SDS011;63247;54.300;18.592;2023-01-10T02:18:00;34.38;;;11.25;;
67248;SDS011;63247;54.300;18.592;2023-01-10T02:20:27;30.50;;;11.30;;
67248;SDS011;63247;54.300;18.592;2023-01-10T02:28:57;31.35;;;11.20;;
67248;SDS011;63247;54.300;18.592;2023-01-10T02:37:12;29.55;;;10.52;;
67248;SDS011;63247;54.300;18.592;2023-01-10T02:40:11;29.33;;;10.65;;
67248;SDS011;63247;54.300;18.592;2023-01-10T02:48:11;25.63;;;9.57;;
67248;SDS011;63247;54.300;18.592;2023-01-10T03:03:47;29.20;;;9.30;;
67248;SDS011;63247;54.300;18.592;2023-01-10T03:10:02;22.20;;;8.05;;
67248;SDS011;63247;54.300;18.592;2023-01-10T03:12:43;26.57;;;8.50;;
67248;SDS011;63247;54.300;18.592;2023-01-10T03:15:17;19.23;;;7.68;;
67248;SDS011;63247;54.300;18.592;2023-01-10T03:17:44;21.60;;;7.78;;
67248;SDS011;63247;54.300;18.592;2023-01-10T03:20:13;25.05;;;7.82;;
67248;SDS011;63247;54.300;18.592;2023-01-10T03:22:39;24.00;;;8.32;;
67248;SDS011;63247;54.300;18.592;2023-01-10T03:25:07;26.33;;;8.93;;
67248;SDS011;63247;54.300;18.592;2023-01-10T03:32:39;25.20;;;8.35;;
67248;SDS011;63247;54.300;18.592;2023-01-10T03:35:06;25.42;;;8.75;;
67248;SDS011;63247;54.300;18.592;2023-01-10T03:46:07;26.83;;;8.63;;
67248;SDS011;63247;54.300;18.592;2023-01-10T03:48:34;24.10;;;8.55;;
67248;SDS011;63247;54.300;18.592;2023-01-10T03:51:02;22.27;;;8.53;;
67248;SDS011;63247;54.300;18.592;2023-01-10T03:53:30;25.65;;;8.15;;
67248;SDS011;63247;54.300;18.592;2023-01-10T03:55:56;23.80;;;8.60;;
67248;SDS011;63247;54.300;18.592;2023-01-10T03:58:23;22.40;;;8.07;;
67248;SDS011;63247;54.300;18.592;2023-01-10T04:00:50;22.70;;;7.50;;
67248;SDS011;63247;54.300;18.592;2023-01-10T04:03:15;23.27;;;8.37;;
67248;SDS011;63247;54.300;18.592;2023-01-10T04:05:41;25.70;;;8.33;;
67248;SDS011;63247;54.300;18.592;2023-01-10T04:08:07;23.58;;;8.05;;
67248;SDS011;63247;54.300;18.592;2023-01-10T04:10:32;23.70;;;7.88;;
67248;SDS011;63247;54.300;18.592;2023-01-10T04:13:01;21.03;;;8.03;;
67248;SDS011;63247;54.300;18.592;2023-01-10T04:15:27;25.95;;;8.65;;
67248;SDS011;63247;54.300;18.592;2023-01-10T04:17:53;30.75;;;8.85;;
67248;SDS011;63247;54.300;18.592;2023-01-10T04:20:19;27.03;;;9.50;;
67248;SDS011;63247;54.300;18.592;2023-01-10T04:22:44;28.05;;;9.38;;
67248;SDS011;63247;54.300;18.592;2023-01-10T04:25:10;32.77;;;10.67;;
67248;SDS011;63247;54.300;18.592;2023-01-10T04:27:36;30.23;;;9.70;;
67248;SDS011;63247;54.300;18.592;2023-01-10T04:30:01;30.15;;;10.05;;
67248;SDS011;63247;54.300;18.592;2023-01-10T04:32:27;34.13;;;10.47;;
67248;SDS011;63247;54.300;18.592;2023-01-10T04:34:52;32.27;;;9.87;;
67248;SDS011;63247;54.300;18.592;2023-01-10T04:37:18;30.88;;;10.25;;
67248;SDS011;63247;54.300;18.592;2023-01-10T04:39:44;33.17;;;10.90;;
67248;SDS011;63247;54.300;18.592;2023-01-10T04:42:09;34.50;;;11.07;;
67248;SDS011;63247;54.300;18.592;2023-01-10T04:44:35;34.27;;;11.63;;
67248;SDS011;63247;54.300;18.592;2023-01-10T04:47:01;31.05;;;10.90;;
67248;SDS011;63247;54.300;18.592;2023-01-10T04:49:27;38.70;;;11.50;;
67248;SDS011;63247;54.300;18.592;2023-01-10T04:51:52;32.92;;;11.23;;
67248;SDS011;63247;54.300;18.592;2023-01-10T04:54:21;36.33;;;12.20;;
67248;SDS011;63247;54.300;18.592;2023-01-10T04:56:47;32.72;;;11.65;;
67248;SDS011;63247;54.300;18.592;2023-01-10T04:59:12;36.70;;;11.73;;
67248;SDS011;63247;54.300;18.592;2023-01-10T05:01:38;35.42;;;11.88;;
67248;SDS011;63247;54.300;18.592;2023-01-10T05:04:05;39.30;;;12.47;;
67248;SDS011;63247;54.300;18.592;2023-01-10T05:06:31;36.75;;;12.45;;
67248;SDS011;63247;54.300;18.592;2023-01-10T05:08:57;36.97;;;11.85;;
67248;SDS011;63247;54.300;18.592;2023-01-10T05:11:23;34.87;;;11.80;;
67248;SDS011;63247;54.300;18.592;2023-01-10T05:13:49;32.53;;;10.75;;
67248;SDS011;63247;54.300;18.592;2023-01-10T05:16:15;38.33;;;11.23;;
67248;SDS011;63247;54.300;18.592;2023-01-10T05:18:41;31.83;;;10.77;;
67248;SDS011;63247;54.300;18.592;2023-01-10T05:21:08;32.38;;;10.93;;
67248;SDS011;63247;54.300;18.592;2023-01-10T05:23:35;34.33;;;10.75;;
67248;SDS011;63247;54.300;18.592;2023-01-10T05:26:05;34.73;;;11.27;;
67248;SDS011;63247;54.300;18.592;2023-01-10T05:28:35;34.00;;;10.88;;
67248;SDS011;63247;54.300;18.592;2023-01-10T05:31:01;30.77;;;10.88;;
67248;SDS011;63247;54.300;18.592;2023-01-10T05:33:27;33.40;;;11.73;;
67248;SDS011;63247;54.300;18.592;2023-01-10T05:35:52;31.50;;;10.98;;
67248;SDS011;63247;54.300;18.592;2023-01-10T05:38:18;33.70;;;10.43;;
67248;SDS011;63247;54.300;18.592;2023-01-10T05:40:43;30.20;;;10.40;;
67248;SDS011;63247;54.300;18.592;2023-01-10T05:43:09;36.10;;;11.33;;
67248;SDS011;63247;54.300;18.592;2023-01-10T05:45:36;34.45;;;10.90;;
67248;SDS011;63247;54.300;18.592;2023-01-10T05:48:01;33.90;;;11.67;;
67248;SDS011;63247;54.300;18.592;2023-01-10T05:50:27;32.67;;;10.68;;
67248;SDS011;63247;54.300;18.592;2023-01-10T05:52:52;32.00;;;10.83;;
67248;SDS011;63247;54.300;18.592;2023-01-10T05:55:18;31.70;;;10.67;;
67248;SDS011;63247;54.300;18.592;2023-01-10T05:57:43;31.20;;;11.02;;
67248;SDS011;63247;54.300;18.592;2023-01-10T06:00:09;31.47;;;10.90;;
67248;SDS011;63247;54.300;18.592;2023-01-10T06:02:35;33.78;;;11.15;;
67248;SDS011;63247;54.300;18.592;2023-01-10T06:05:01;32.80;;;11.40;;
67248;SDS011;63247;54.300;18.592;2023-01-10T06:07:26;33.90;;;11.70;;
67248;SDS011;63247;54.300;18.592;2023-01-10T06:09:52;32.73;;;10.53;;
67248;SDS011;63247;54.300;18.592;2023-01-10T06:12:17;35.60;;;10.63;;
67248;SDS011;63247;54.300;18.592;2023-01-10T06:14:43;33.87;;;10.37;;
67248;SDS011;63247;54.300;18.592;2023-01-10T06:17:09;32.17;;;10.90;;
67248;SDS011;63247;54.300;18.592;2023-01-10T06:19:35;31.50;;;10.90;;
67248;SDS011;63247;54.300;18.592;2023-01-10T06:22:01;31.90;;;10.93;;
67248;SDS011;63247;54.300;18.592;2023-01-10T06:24:27;34.53;;;11.57;;
67248;SDS011;63247;54.300;18.592;2023-01-10T06:26:53;28.60;;;10.27;;
67248;SDS011;63247;54.300;18.592;2023-01-10T06:29:19;29.88;;;9.63;;
67248;SDS011;63247;54.300;18.592;2023-01-10T06:31:44;28.93;;;9.67;;
67248;SDS011;63247;54.300;18.592;2023-01-10T06:34:10;30.08;;;9.50;;
67248;SDS011;63247;54.300;18.592;2023-01-10T06:36:35;30.73;;;9.77;;
67248;SDS011;63247;54.300;18.592;2023-01-10T06:39:01;33.07;;;10.17;;
67248;SDS011;63247;54.300;18.592;2023-01-10T06:41:26;27.25;;;8.88;;
67248;SDS011;63247;54.300;18.592;2023-01-10T06:43:52;25.23;;;8.17;;
67248;SDS011;63247;54.300;18.592;2023-01-10T06:46:18;24.03;;;8.63;;
67248;SDS011;63247;54.300;18.592;2023-01-10T06:48:44;25.42;;;8.90;;
67248;SDS011;63247;54.300;18.592;2023-01-10T06:51:10;24.27;;;8.98;;
67248;SDS011;63247;54.300;18.592;2023-01-10T06:53:37;27.25;;;9.05;;
67248;SDS011;63247;54.300;18.592;2023-01-10T06:56:03;30.37;;;10.00;;
67248;SDS011;63247;54.300;18.592;2023-01-10T06:58:30;29.15;;;10.55;;
67248;SDS011;63247;54.300;18.592;2023-01-10T07:00:56;29.77;;;9.95;;
67248;SDS011;63247;54.300;18.592;2023-01-10T07:03:22;26.40;;;9.20;;
67248;SDS011;63247;54.300;18.592;2023-01-10T07:05:47;30.55;;;10.05;;
67248;SDS011;63247;54.300;18.592;2023-01-10T07:08:13;32.10;;;11.03;;
67248;SDS011;63247;54.300;18.592;2023-01-10T07:10:39;34.37;;;10.40;;
67248;SDS011;63247;54.300;18.592;2023-01-10T07:13:05;28.05;;;9.30;;
67248;SDS011;63247;54.300;18.592;2023-01-10T07:15:31;27.33;;;9.85;;
67248;SDS011;63247;54.300;18.592;2023-01-10T07:17:57;26.93;;;9.47;;
67248;SDS011;63247;54.300;18.592;2023-01-10T07:20:23;30.73;;;9.82;;
67248;SDS011;63247;54.300;18.592;2023-01-10T07:22:55;31.65;;;9.60;;
67248;SDS011;63247;54.300;18.592;2023-01-10T07:25:22;25.27;;;8.80;;
67248;SDS011;63247;54.300;18.592;2023-01-10T07:27:49;26.63;;;8.40;;
67248;SDS011;63247;54.300;18.592;2023-01-10T07:30:14;26.05;;;8.48;;
67248;SDS011;63247;54.300;18.592;2023-01-10T07:32:40;25.65;;;8.77;;
67248;SDS011;63247;54.300;18.592;2023-01-10T07:35:06;27.70;;;8.48;;
67248;SDS011;63247;54.300;18.592;2023-01-10T07:37:32;28.70;;;9.03;;
67248;SDS011;63247;54.300;18.592;2023-01-10T07:39:58;25.00;;;8.45;;
67248;SDS011;63247;54.300;18.592;2023-01-10T07:42:23;24.43;;;8.47;;
67248;SDS011;63247;54.300;18.592;2023-01-10T07:44:49;25.50;;;8.25;;
67248;SDS011;63247;54.300;18.592;2023-01-10T07:47:14;21.50;;;7.57;;
67248;SDS011;63247;54.300;18.592;2023-01-10T07:49:40;26.03;;;7.63;;
67248;SDS011;63247;54.300;18.592;2023-01-10T07:52:05;22.57;;;8.03;;
67248;SDS011;63247;54.300;18.592;2023-01-10T07:54:33;23.38;;;7.85;;
67248;SDS011;63247;54.300;18.592;2023-01-10T07:56:59;21.38;;;7.03;;
67248;SDS011;63247;54.300;18.592;2023-01-10T07:59:24;24.77;;;7.87;;
67248;SDS011;63247;54.300;18.592;2023-01-10T08:01:50;20.45;;;7.95;;
67248;SDS011;63247;54.300;18.592;2023-01-10T08:04:15;19.60;;;7.30;;
67248;SDS011;63247;54.300;18.592;2023-01-10T08:06:41;23.00;;;7.60;;
67248;SDS011;63247;54.300;18.592;2023-01-10T08:09:06;19.43;;;6.90;;
67248;SDS011;63247;54.300;18.592;2023-01-10T08:11:32;18.42;;;6.95;;
67248;SDS011;63247;54.300;18.592;2023-01-10T08:13:57;21.20;;;6.93;;
67248;SDS011;63247;54.300;18.592;2023-01-10T08:16:23;20.07;;;7.20;;
67248;SDS011;63247;54.300;18.592;2023-01-10T08:18:49;20.77;;;6.90;;
67248;SDS011;63247;54.300;18.592;2023-01-10T08:21:14;20.60;;;7.03;;
67248;SDS011;63247;54.300;18.592;2023-01-10T08:23:40;20.47;;;7.03;;
67248;SDS011;63247;54.300;18.592;2023-01-10T08:26:05;18.33;;;7.28;;
67248;SDS011;63247;54.300;18.592;2023-01-10T08:28:31;20.73;;;7.03;;
67248;SDS011;63247;54.300;18.592;2023-01-10T08:30:57;17.45;;;6.10;;
67248;SDS011;63247;54.300;18.592;2023-01-10T08:33:22;20.40;;;6.40;;
67248;SDS011;63247;54.300;18.592;2023-01-10T08:35:49;18.23;;;5.45;;
67248;SDS011;63247;54.300;18.592;2023-01-10T08:38:15;17.52;;;6.20;;
67248;SDS011;63247;54.300;18.592;2023-01-10T08:40:41;18.57;;;6.27;;
67248;SDS011;63247;54.300;18.592;2023-01-10T08:43:08;17.27;;;6.67;;
67248;SDS011;63247;54.300;18.592;2023-01-10T08:45:36;19.83;;;6.68;;
67248;SDS011;63247;54.300;18.592;2023-01-10T08:48:02;18.60;;;6.30;;
67248;SDS011;63247;54.300;18.592;2023-01-10T08:50:29;18.00;;;6.28;;
67248;SDS011;63247;54.300;18.592;2023-01-10T08:52:58;18.87;;;6.50;;
67248;SDS011;63247;54.300;18.592;2023-01-10T08:55:24;18.27;;;6.97;;
67248;SDS011;63247;54.300;18.592;2023-01-10T08:57:50;19.23;;;6.80;;
67248;SDS011;63247;54.300;18.592;2023-01-10T09:00:16;17.80;;;7.10;;
67248;SDS011;63247;54.300;18.592;2023-01-10T09:02:42;20.42;;;7.40;;
67248;SDS011;63247;54.300;18.592;2023-01-10T09:05:08;18.93;;;7.23;;
67248;SDS011;63247;54.300;18.592;2023-01-10T09:07:33;20.10;;;7.70;;
67248;SDS011;63247;54.300;18.592;2023-01-10T09:09:59;21.97;;;7.70;;
67248;SDS011;63247;54.300;18.592;2023-01-10T09:12:24;20.02;;;7.82;;
67248;SDS011;63247;54.300;18.592;2023-01-10T09:15:08;22.83;;;7.67;;
67248;SDS011;63247;54.300;18.592;2023-01-10T09:17:35;23.67;;;7.63;;
67248;SDS011;63247;54.300;18.592;2023-01-10T09:20:00;21.55;;;7.43;;
67248;SDS011;63247;54.300;18.592;2023-01-10T09:22:30;20.65;;;7.30;;
67248;SDS011;63247;54.300;18.592;2023-01-10T09:24:55;19.88;;;8.10;;
67248;SDS011;63247;54.300;18.592;2023-01-10T09:27:21;23.00;;;7.77;;
67248;SDS011;63247;54.300;18.592;2023-01-10T09:29:46;20.87;;;8.17;;
67248;SDS011;63247;54.300;18.592;2023-01-10T09:32:12;22.13;;;7.95;;
67248;SDS011;63247;54.300;18.592;2023-01-10T09:34:37;21.60;;;8.43;;
67248;SDS011;63247;54.300;18.592;2023-01-10T09:37:03;21.97;;;7.97;;
67248;SDS011;63247;54.300;18.592;2023-01-10T09:39:28;23.05;;;8.15;;
67248;SDS011;63247;54.300;18.592;2023-01-10T09:44:37;22.77;;;8.13;;
67248;SDS011;63247;54.300;18.592;2023-01-10T09:50:09;23.52;;;7.45;;
67248;SDS011;63247;54.300;18.592;2023-01-10T09:52:43;18.33;;;7.07;;
67248;SDS011;63247;54.300;18.592;2023-01-10T09:55:34;23.80;;;8.50;;
67248;SDS011;63247;54.300;18.592;2023-01-10T09:58:03;19.10;;;7.68;;
67248;SDS011;63247;54.300;18.592;2023-01-10T10:00:44;22.80;;;7.83;;
67248;SDS011;63247;54.300;18.592;2023-01-10T10:06:17;22.48;;;8.00;;
67248;SDS011;63247;54.300;18.592;2023-01-10T10:08:43;26.63;;;8.55;;
67248;SDS011;63247;54.300;18.592;2023-01-10T10:27:56;25.90;;;8.60;;
67248;SDS011;63247;54.300;18.592;2023-01-10T10:31:11;22.70;;;7.88;;
67248;SDS011;63247;54.300;18.592;2023-01-10T10:37:22;21.73;;;8.38;;
67248;SDS011;63247;54.300;18.592;2023-01-10T10:40:00;22.08;;;8.68;;
67248;SDS011;63247;54.300;18.592;2023-01-10T10:42:32;23.83;;;8.27;;
67248;SDS011;63247;54.300;18.592;2023-01-10T10:45:06;30.38;;;8.73;;
67248;SDS011;63247;54.300;18.592;2023-01-10T10:47:41;25.05;;;8.77;;
67248;SDS011;63247;54.300;18.592;2023-01-10T10:52:39;27.87;;;9.40;;
67248;SDS011;63247;54.300;18.592;2023-01-10T10:55:10;29.25;;;9.65;;
67248;SDS011;63247;54.300;18.592;2023-01-10T10:57:39;29.92;;;9.90;;
67248;SDS011;63247;54.300;18.592;2023-01-10T11:00:06;25.50;;;8.90;;
67248;SDS011;63247;54.300;18.592;2023-01-10T11:02:40;21.77;;;8.38;;
67248;SDS011;63247;54.300;18.592;2023-01-10T11:05:19;28.70;;;9.20;;
67248;SDS011;63247;54.300;18.592;2023-01-10T11:07:47;22.30;;;7.90;;
67248;SDS011;63247;54.300;18.592;2023-01-10T11:10:17;25.52;;;9.43;;
67248;SDS011;63247;54.300;18.592;2023-01-10T11:13:12;21.87;;;7.73;;
67248;SDS011;63247;54.300;18.592;2023-01-10T11:15:49;24.10;;;7.85;;
67248;SDS011;63247;54.300;18.592;2023-01-10T11:18:19;28.08;;;8.77;;
67248;SDS011;63247;54.300;18.592;2023-01-10T11:20:47;33.53;;;11.70;;
67248;SDS011;63247;54.300;18.592;2023-01-10T11:25:59;35.93;;;11.13;;
67248;SDS011;63247;54.300;18.592;2023-01-10T11:28:27;28.83;;;10.13;;
67248;SDS011;63247;54.300;18.592;2023-01-10T11:30:55;29.90;;;9.75;;
67248;SDS011;63247;54.300;18.592;2023-01-10T11:33:30;24.95;;;8.35;;
67248;SDS011;63247;54.300;18.592;2023-01-10T11:36:06;34.57;;;11.63;;
67248;SDS011;63247;54.300;18.592;2023-01-10T11:38:34;37.00;;;10.30;;
67248;SDS011;63247;54.300;18.592;2023-01-10T11:41:04;30.17;;;9.15;;
67248;SDS011;63247;54.300;18.592;2023-01-10T11:43:46;21.65;;;7.18;;
67248;SDS011;63247;54.300;18.592;2023-01-10T11:51:23;19.25;;;7.43;;
67248;SDS011;63247;54.300;18.592;2023-01-10T11:53:55;23.42;;;8.60;;
67248;SDS011;63247;54.300;18.592;2023-01-10T11:56:25;23.60;;;8.77;;
67248;SDS011;63247;54.300;18.592;2023-01-10T11:58:53;18.20;;;8.23;;
67248;SDS011;63247;54.300;18.592;2023-01-10T12:04:06;21.80;;;8.00;;
67248;SDS011;63247;54.300;18.592;2023-01-10T12:06:42;20.13;;;7.97;;
67248;SDS011;63247;54.300;18.592;2023-01-10T12:12:04;21.67;;;7.80;;
67248;SDS011;63247;54.300;18.592;2023-01-10T12:14:38;20.63;;;7.93;;
67248;SDS011;63247;54.300;18.592;2023-01-10T12:17:04;16.00;;;6.80;;
67248;SDS011;63247;54.300;18.592;2023-01-10T12:19:29;16.57;;;6.43;;
67248;SDS011;63247;54.300;18.592;2023-01-10T12:22:01;18.93;;;7.10;;
67248;SDS011;63247;54.300;18.592;2023-01-10T12:24:31;19.00;;;6.97;;
67248;SDS011;63247;54.300;18.592;2023-01-10T12:27:02;20.00;;;6.97;;
67248;SDS011;63247;54.300;18.592;2023-01-10T12:29:33;19.23;;;7.28;;
67248;SDS011;63247;54.300;18.592;2023-01-10T12:32:03;18.53;;;7.60;;
67248;SDS011;63247;54.300;18.592;2023-01-10T12:34:43;18.60;;;8.07;;
67248;SDS011;63247;54.300;18.592;2023-01-10T12:37:28;20.88;;;7.80;;
67248;SDS011;63247;54.300;18.592;2023-01-10T12:40:03;23.98;;;8.60;;
67248;SDS011;63247;54.300;18.592;2023-01-10T12:45:43;31.10;;;11.00;;
67248;SDS011;63247;54.300;18.592;2023-01-10T12:51:21;28.65;;;10.73;;
67248;SDS011;63247;54.300;18.592;2023-01-10T12:53:54;32.42;;;12.57;;
67248;SDS011;63247;54.300;18.592;2023-01-10T12:56:23;31.08;;;11.63;;
67248;SDS011;63247;54.300;18.592;2023-01-10T12:59:03;33.27;;;12.20;;
67248;SDS011;63247;54.300;18.592;2023-01-10T13:01:35;35.17;;;12.50;;
67248;SDS011;63247;54.300;18.592;2023-01-10T13:04:08;39.72;;;12.45;;
67248;SDS011;63247;54.300;18.592;2023-01-10T13:06:39;36.65;;;13.27;;
67248;SDS011;63247;54.300;18.592;2023-01-10T13:09:07;40.33;;;13.33;;
67248;SDS011;63247;54.300;18.592;2023-01-10T13:14:21;42.63;;;15.82;;
67248;SDS011;63247;54.300;18.592;2023-01-10T13:22:53;47.97;;;16.97;;
67248;SDS011;63247;54.300;18.592;2023-01-10T13:25:24;51.10;;;16.55;;
67248;SDS011;63247;54.300;18.592;2023-01-10T13:28:05;55.85;;;18.52;;
67248;SDS011;63247;54.300;18.592;2023-01-10T13:30:38;52.55;;;18.13;;
67248;SDS011;63247;54.300;18.592;2023-01-10T13:35:56;59.07;;;17.87;;
67248;SDS011;63247;54.300;18.592;2023-01-10T13:38:44;56.25;;;18.10;;
67248;SDS011;63247;54.300;18.592;2023-01-10T13:41:14;58.90;;;18.75;;
67248;SDS011;63247;54.300;18.592;2023-01-10T13:44:05;60.17;;;18.13;;
67248;SDS011;63247;54.300;18.592;2023-01-10T13:46:34;66.88;;;19.70;;
67248;SDS011;63247;54.300;18.592;2023-01-10T13:51:31;54.05;;;16.77;;
67248;SDS011;63247;54.300;18.592;2023-01-10T13:54:03;54.72;;;17.58;;
67248;SDS011;63247;54.300;18.592;2023-01-10T13:56:49;48.63;;;16.47;;
67248;SDS011;63247;54.300;18.592;2023-01-10T14:04:59;62.90;;;17.80;;
67248;SDS011;63247;54.300;18.592;2023-01-10T14:15:41;56.97;;;17.25;;
67248;SDS011;63247;54.300;18.592;2023-01-10T14:18:21;55.30;;;16.63;;
67248;SDS011;63247;54.300;18.592;2023-01-10T14:20:59;61.15;;;17.40;;
67248;SDS011;63247;54.300;18.592;2023-01-10T14:25:58;57.25;;;16.40;;
67248;SDS011;63247;54.300;18.592;2023-01-10T14:28:25;62.05;;;16.55;;
67248;SDS011;63247;54.300;18.592;2023-01-10T14:31:04;63.17;;;16.30;;
67248;SDS011;63247;54.300;18.592;2023-01-10T14:33:33;58.35;;;16.73;;
67248;SDS011;63247;54.300;18.592;2023-01-10T14:36:01;68.35;;;16.55;;
67248;SDS011;63247;54.300;18.592;2023-01-10T14:38:32;64.63;;;17.15;;
67248;SDS011;63247;54.300;18.592;2023-01-10T14:41:04;73.47;;;18.53;;
67248;SDS011;63247;54.300;18.592;2023-01-10T14:43:37;72.07;;;19.30;;
67248;SDS011;63247;54.300;18.592;2023-01-10T14:48:45;72.90;;;19.40;;
67248;SDS011;63247;54.300;18.592;2023-01-10T14:51:23;59.85;;;16.45;;
67248;SDS011;63247;54.300;18.592;2023-01-10T14:53:57;57.33;;;16.70;;
67248;SDS011;63247;54.300;18.592;2023-01-10T14:59:25;54.83;;;15.60;;
67248;SDS011;63247;54.300;18.592;2023-01-10T15:01:51;51.67;;;15.18;;
67248;SDS011;63247;54.300;18.592;2023-01-10T15:04:19;50.78;;;14.50;;
67248;SDS011;63247;54.300;18.592;2023-01-10T15:06:51;56.53;;;14.40;;
67248;SDS011;63247;54.300;18.592;2023-01-10T15:09:20;57.85;;;14.38;;
67248;SDS011;63247;54.300;18.592;2023-01-10T15:11:46;53.67;;;14.80;;
67248;SDS011;63247;54.300;18.592;2023-01-10T15:14:12;48.08;;;14.13;;
67248;SDS011;63247;54.300;18.592;2023-01-10T15:16:44;64.50;;;16.20;;
67248;SDS011;63247;54.300;18.592;2023-01-10T15:19:12;55.38;;;14.32;;
67248;SDS011;63247;54.300;18.592;2023-01-10T15:21:41;52.63;;;15.50;;
67248;SDS011;63247;54.300;18.592;2023-01-10T15:24:41;52.90;;;14.23;;
67248;SDS011;63247;54.300;18.592;2023-01-10T15:27:05;58.83;;;14.73;;
67248;SDS011;63247;54.300;18.592;2023-01-10T15:29:35;61.15;;;15.05;;
67248;SDS011;63247;54.300;18.592;2023-01-10T15:32:09;59.22;;;15.32;;
67248;SDS011;63247;54.300;18.592;2023-01-10T15:34:36;57.83;;;14.43;;
67248;SDS011;63247;54.300;18.592;2023-01-10T15:37:03;58.23;;;14.80;;
67248;SDS011;63247;54.300;18.592;2023-01-10T15:39:38;57.40;;;13.50;;
67248;SDS011;63247;54.300;18.592;2023-01-10T15:42:08;58.67;;;14.05;;
67248;SDS011;63247;54.300;18.592;2023-01-10T15:44:45;54.72;;;13.73;;
67248;SDS011;63247;54.300;18.592;2023-01-10T15:52:52;56.75;;;14.30;;
67248;SDS011;63247;54.300;18.592;2023-01-10T16:00:54;62.75;;;14.55;;
67248;SDS011;63247;54.300;18.592;2023-01-10T16:08:49;59.15;;;15.73;;
67248;SDS011;63247;54.300;18.592;2023-01-10T16:11:18;61.88;;;15.63;;
67248;SDS011;63247;54.300;18.592;2023-01-10T16:14:07;67.25;;;15.77;;
67248;SDS011;63247;54.300;18.592;2023-01-10T16:16:33;63.10;;;16.00;;
67248;SDS011;63247;54.300;18.592;2023-01-10T16:18:59;62.05;;;15.75;;
67248;SDS011;63247;54.300;18.592;2023-01-10T16:21:25;68.20;;;16.47;;
67248;SDS011;63247;54.300;18.592;2023-01-10T16:23:57;59.63;;;15.40;;
67248;SDS011;63247;54.300;18.592;2023-01-10T16:26:22;58.20;;;15.30;;
67248;SDS011;63247;54.300;18.592;2023-01-10T16:28:48;59.47;;;16.07;;
67248;SDS011;63247;54.300;18.592;2023-01-10T16:31:13;66.93;;;17.00;;
67248;SDS011;63247;54.300;18.592;2023-01-10T16:33:38;66.80;;;16.63;;
67248;SDS011;63247;54.300;18.592;2023-01-10T16:36:10;63.08;;;15.93;;
67248;SDS011;63247;54.300;18.592;2023-01-10T16:38:38;61.97;;;16.73;;
67248;SDS011;63247;54.300;18.592;2023-01-10T16:41:04;64.97;;;17.13;;
67248;SDS011;63247;54.300;18.592;2023-01-10T16:43:50;68.17;;;17.20;;
67248;SDS011;63247;54.300;18.592;2023-01-10T16:46:18;67.68;;;17.35;;
67248;SDS011;63247;54.300;18.592;2023-01-10T16:48:43;63.37;;;16.73;;
67248;SDS011;63247;54.300;18.592;2023-01-10T16:53:40;66.57;;;18.27;;
67248;SDS011;63247;54.300;18.592;2023-01-10T16:56:05;63.23;;;17.93;;
67248;SDS011;63247;54.300;18.592;2023-01-10T16:58:31;65.35;;;17.92;;
67248;SDS011;63247;54.300;18.592;2023-01-10T17:00:57;64.18;;;18.13;;
67248;SDS011;63247;54.300;18.592;2023-01-10T17:03:25;63.63;;;17.03;;
67248;SDS011;63247;54.300;18.592;2023-01-10T17:05:50;60.92;;;18.05;;